createdAt,value
2023-04-23T00:00:42.342Z,12.87
2023-04-23T00:01:42.341Z,12.89
2023-04-23T00:02:42.362Z,12.90
2023-04-23T00:03:42.524Z,12.89
2023-04-23T00:04:42.507Z,12.93
2023-04-23T00:05:42.302Z,12.90
2023-04-23T00:06:42.273Z,12.89
2023-04-23T00:07:42.271Z,12.90
2023-04-23T00:08:42.259Z,12.90
2023-04-23T00:09:42.252Z,12.90
2023-04-23T00:10:42.235Z,12.92
2023-04-23T00:11:42.238Z,12.92
2023-04-23T00:12:42.221Z,12.93
2023-04-23T00:13:42.212Z,12.92
2023-04-23T00:14:42.541Z,12.89
2023-04-23T00:15:42.182Z,12.87
2023-04-23T00:16:42.251Z,12.85
2023-04-23T00:17:42.237Z,12.83
2023-04-23T00:18:42.144Z,12.85
2023-04-23T00:19:42.158Z,12.78
2023-04-23T00:20:42.131Z,12.77
2023-04-23T00:21:42.128Z,12.71
2023-04-23T00:22:42.112Z,12.68
2023-04-23T00:23:42.098Z,12.65
2023-04-23T00:24:42.318Z,12.60
2023-04-23T00:25:42.090Z,12.56
2023-04-23T00:26:42.081Z,12.57
2023-04-23T00:27:42.058Z,12.52
2023-04-23T00:28:42.033Z,12.47
2023-04-23T00:29:42.035Z,12.47
2023-04-23T00:30:42.030Z,12.49
2023-04-23T00:31:42.049Z,12.49
2023-04-23T00:32:42.053Z,12.50
2023-04-23T00:33:42.012Z,12.54
2023-04-23T00:34:42.209Z,12.52
2023-04-23T00:35:41.969Z,12.54
2023-04-23T00:36:41.953Z,12.57
2023-04-23T00:37:41.956Z,12.57
2023-04-23T00:38:41.934Z,12.59
2023-04-23T00:39:41.931Z,12.64
2023-04-23T00:40:41.907Z,12.62
2023-04-23T00:41:41.922Z,12.60
2023-04-23T00:42:41.895Z,12.57
2023-04-23T00:43:41.891Z,12.52
2023-04-23T00:44:42.451Z,12.50
2023-04-23T00:45:41.880Z,12.49
2023-04-23T00:46:41.847Z,12.47
2023-04-23T00:47:41.878Z,12.47
2023-04-23T00:48:41.841Z,12.47
2023-04-23T00:49:41.830Z,12.42
2023-04-23T00:50:41.827Z,12.39
2023-04-23T00:51:41.820Z,12.39
2023-04-23T00:52:41.777Z,12.37
2023-04-23T00:53:41.775Z,12.37
2023-04-23T00:54:42.062Z,12.32
2023-04-23T00:55:41.765Z,12.32
2023-04-23T00:56:41.743Z,12.34
2023-04-23T00:57:41.739Z,12.34
2023-04-23T00:58:41.720Z,12.35
2023-04-23T00:59:41.713Z,12.38
2023-04-23T01:00:41.713Z,12.35
2023-04-23T01:01:41.776Z,12.35
2023-04-23T01:02:41.858Z,12.35
2023-04-23T01:03:41.773Z,12.34
2023-04-23T01:04:41.932Z,12.31
2023-04-23T01:05:41.669Z,12.31
2023-04-23T01:06:41.641Z,12.29
2023-04-23T01:07:41.633Z,12.29
2023-04-23T01:08:41.611Z,12.28
2023-04-23T01:09:41.635Z,12.29
2023-04-23T01:10:41.595Z,12.27
2023-04-23T01:11:41.586Z,12.24
2023-04-23T01:12:41.591Z,12.24
2023-04-23T01:13:41.559Z,12.21
2023-04-23T01:14:41.809Z,12.17
2023-04-23T01:15:41.577Z,12.14
2023-04-23T01:16:41.555Z,12.16
2023-04-23T01:17:41.641Z,12.17
2023-04-23T01:18:41.519Z,12.20
2023-04-23T01:19:41.516Z,12.16
2023-04-23T01:20:41.497Z,12.16
2023-04-23T01:21:41.499Z,12.14
2023-04-23T01:22:41.469Z,12.13
2023-04-23T01:23:41.546Z,12.10
2023-04-23T01:24:41.675Z,12.12
2023-04-23T01:25:41.447Z,12.12
2023-04-23T01:26:41.422Z,12.13
2023-04-23T01:27:41.414Z,12.10
2023-04-23T01:28:41.405Z,12.12
2023-04-23T01:29:41.386Z,12.13
2023-04-23T01:30:41.415Z,12.14
2023-04-23T01:31:41.376Z,12.17
2023-04-23T01:32:41.370Z,12.14
2023-04-23T01:33:41.348Z,12.12
2023-04-23T01:34:41.597Z,12.13
2023-04-23T01:35:41.318Z,12.14
2023-04-23T01:36:41.322Z,12.16
2023-04-23T01:37:41.326Z,12.13
2023-04-23T01:38:41.310Z,12.13
2023-04-23T01:39:41.283Z,12.09
2023-04-23T01:40:41.270Z,12.10
2023-04-23T01:41:41.252Z,12.05
2023-04-23T01:42:41.310Z,12.01
2023-04-23T01:43:41.246Z,11.99
2023-04-23T01:44:41.519Z,11.96
2023-04-23T01:45:41.217Z,11.91
2023-04-23T01:46:41.339Z,11.90
2023-04-23T01:47:41.233Z,11.90
2023-04-23T01:48:41.194Z,11.86
2023-04-23T01:49:41.180Z,11.80
2023-04-23T01:50:41.168Z,11.79
2023-04-23T01:51:41.159Z,11.78
2023-04-23T01:52:41.146Z,11.72
2023-04-23T01:53:41.125Z,11.72
2023-04-23T01:54:41.362Z,11.70
2023-04-23T01:55:41.142Z,11.69
2023-04-23T01:56:41.099Z,11.62
2023-04-23T01:57:41.088Z,11.61
2023-04-23T01:58:41.088Z,11.58
2023-04-23T01:59:41.060Z,11.52
2023-04-23T02:00:41.065Z,11.49
2023-04-23T02:01:41.086Z,11.46
2023-04-23T02:02:41.284Z,11.46
2023-04-23T02:03:41.175Z,11.46
2023-04-23T02:04:41.357Z,11.43
2023-04-23T02:05:41.012Z,11.43
2023-04-23T02:06:40.995Z,11.43
2023-04-23T02:07:41.045Z,11.39
2023-04-23T02:08:41.020Z,11.37
2023-04-23T02:09:41.000Z,11.40
2023-04-23T02:10:40.947Z,11.39
2023-04-23T02:11:40.926Z,11.42
2023-04-23T02:12:40.935Z,11.42
2023-04-23T02:13:40.918Z,11.44
2023-04-23T02:14:41.218Z,11.43
2023-04-23T02:15:40.971Z,11.44
2023-04-23T02:16:40.887Z,11.40
2023-04-23T02:17:40.886Z,11.39
2023-04-23T02:18:40.870Z,11.36
2023-04-23T02:19:40.892Z,11.33
2023-04-23T02:20:40.837Z,11.35
2023-04-23T02:21:40.818Z,11.29
2023-04-23T02:22:40.845Z,11.28
2023-04-23T02:23:40.848Z,11.28
2023-04-23T02:24:41.074Z,11.29
2023-04-23T02:25:40.800Z,11.27
2023-04-23T02:26:40.810Z,11.28
2023-04-23T02:27:40.766Z,11.25
2023-04-23T02:28:40.747Z,11.25
2023-04-23T02:29:40.740Z,11.24
2023-04-23T02:30:40.747Z,11.27
2023-04-23T02:31:40.766Z,11.24
2023-04-23T02:32:40.718Z,11.22
2023-04-23T02:33:40.701Z,11.22
2023-04-23T02:34:40.980Z,11.21
2023-04-23T02:35:40.684Z,11.22
2023-04-23T02:36:40.667Z,11.18
2023-04-23T02:37:40.659Z,11.19
2023-04-23T02:38:40.637Z,11.17
2023-04-23T02:39:40.634Z,11.18
2023-04-23T02:40:40.617Z,11.11
2023-04-23T02:41:40.608Z,11.11
2023-04-23T02:42:43.249Z,11.11
2023-04-23T02:43:40.593Z,11.11
2023-04-23T02:44:40.836Z,11.14
2023-04-23T02:45:40.558Z,11.14
2023-04-23T02:46:40.655Z,11.11
2023-04-23T02:47:40.594Z,11.14
2023-04-23T02:48:40.556Z,11.11
2023-04-23T02:49:40.528Z,11.17
2023-04-23T02:50:40.511Z,11.18
2023-04-23T02:51:40.510Z,11.18
2023-04-23T02:52:40.496Z,11.17
2023-04-23T02:53:40.466Z,11.18
2023-04-23T02:54:40.725Z,11.19
2023-04-23T02:55:40.476Z,11.18
2023-04-23T02:56:40.446Z,11.18
2023-04-23T02:57:40.434Z,11.19
2023-04-23T02:58:40.428Z,11.17
2023-04-23T02:59:40.403Z,11.17
2023-04-23T03:00:40.422Z,11.17
2023-04-23T03:01:40.397Z,11.15
2023-04-23T03:02:40.454Z,11.17
2023-04-23T03:03:40.581Z,11.15
2023-04-23T03:04:40.708Z,11.14
2023-04-23T03:05:40.335Z,11.11
2023-04-23T03:06:40.330Z,11.10
2023-04-23T03:07:40.329Z,11.09
2023-04-23T03:08:40.327Z,11.10
2023-04-23T03:09:40.296Z,11.09
2023-04-23T03:10:40.297Z,11.10
2023-04-23T03:11:40.281Z,11.14
2023-04-23T03:12:40.322Z,11.10
2023-04-23T03:13:40.266Z,11.09
2023-04-23T03:14:40.592Z,11.07
2023-04-23T03:15:40.240Z,11.07
2023-04-23T03:16:40.280Z,11.07
2023-04-23T03:17:40.241Z,11.09
2023-04-23T03:18:40.214Z,11.03
2023-04-23T03:19:40.251Z,10.97
2023-04-23T03:20:40.175Z,10.97
2023-04-23T03:21:40.175Z,10.92
2023-04-23T03:22:40.158Z,10.84
2023-04-23T03:23:40.139Z,10.79
2023-04-23T03:24:40.456Z,10.78
2023-04-23T03:25:40.137Z,10.81
2023-04-23T03:26:40.119Z,10.82
2023-04-23T03:27:40.424Z,10.78
2023-04-23T03:28:40.122Z,10.79
2023-04-23T03:29:40.071Z,10.84
2023-04-23T03:30:40.130Z,10.85
2023-04-23T03:31:40.065Z,10.84
2023-04-23T03:32:40.207Z,10.85
2023-04-23T03:33:40.046Z,10.82
2023-04-23T03:34:40.343Z,10.84
2023-04-23T03:35:40.022Z,10.85
2023-04-23T03:36:40.006Z,10.85
2023-04-23T03:37:40.003Z,10.86
2023-04-23T03:38:39.986Z,10.86
2023-04-23T03:39:39.967Z,10.88
2023-04-23T03:40:39.958Z,10.82
2023-04-23T03:41:39.945Z,10.79
2023-04-23T03:42:39.957Z,10.79
2023-04-23T03:43:39.928Z,10.79
2023-04-23T03:44:40.333Z,10.78
2023-04-23T03:45:39.900Z,10.74
2023-04-23T03:46:39.919Z,10.64
2023-04-23T03:47:39.956Z,10.63
2023-04-23T03:48:39.917Z,10.63
2023-04-23T03:49:39.892Z,10.67
2023-04-23T03:50:39.860Z,10.66
2023-04-23T03:51:39.858Z,10.68
2023-04-23T03:52:39.826Z,10.59
2023-04-23T03:53:39.838Z,10.59
2023-04-23T03:54:40.095Z,10.59
2023-04-23T03:55:39.819Z,10.55
2023-04-23T03:56:39.811Z,10.55
2023-04-23T03:57:39.787Z,10.45
2023-04-23T03:58:39.767Z,10.40
2023-04-23T03:59:39.745Z,10.38
2023-04-23T04:00:39.780Z,10.40
2023-04-23T04:01:39.748Z,10.41
2023-04-23T04:02:39.892Z,10.41
2023-04-23T04:03:39.933Z,10.44
2023-04-23T04:04:39.882Z,10.45
2023-04-23T04:05:39.745Z,10.44
2023-04-23T04:06:39.699Z,10.45
2023-04-23T04:07:39.637Z,10.42
2023-04-23T04:08:39.600Z,10.44
2023-04-23T04:09:39.592Z,10.42
2023-04-23T04:10:39.580Z,10.41
2023-04-23T04:11:39.570Z,10.42
2023-04-23T04:12:39.615Z,10.40
2023-04-23T04:13:39.606Z,10.38
2023-04-23T04:14:39.800Z,10.36
2023-04-23T04:15:39.580Z,10.34
2023-04-23T04:16:39.575Z,10.33
2023-04-23T04:17:39.582Z,10.34
2023-04-23T04:18:39.526Z,10.36
2023-04-23T04:19:39.512Z,10.34
2023-04-23T04:20:39.487Z,10.38
2023-04-23T04:21:39.460Z,10.33
2023-04-23T04:22:39.482Z,10.32
2023-04-23T04:23:39.459Z,10.32
2023-04-23T04:24:39.659Z,10.32
2023-04-23T04:25:39.419Z,10.33
2023-04-23T04:26:39.410Z,10.33
2023-04-23T04:27:39.424Z,10.27
2023-04-23T04:28:39.386Z,10.22
2023-04-23T04:29:39.400Z,10.15
2023-04-23T04:30:39.396Z,10.14
2023-04-23T04:31:39.391Z,10.12
2023-04-23T04:32:39.370Z,10.12
2023-04-23T04:33:39.333Z,10.12
2023-04-23T04:34:39.495Z,10.11
2023-04-23T04:35:39.299Z,10.11
2023-04-23T04:36:39.308Z,10.12
2023-04-23T04:37:39.312Z,10.17
2023-04-23T04:38:39.302Z,10.17
2023-04-23T04:39:39.262Z,10.20
2023-04-23T04:40:39.261Z,10.18
2023-04-23T04:41:39.243Z,10.23
2023-04-23T04:42:39.286Z,10.25
2023-04-23T04:43:39.225Z,10.26
2023-04-23T04:44:39.390Z,10.29
2023-04-23T04:45:39.194Z,10.32
2023-04-23T04:46:39.255Z,10.36
2023-04-23T04:47:39.205Z,10.34
2023-04-23T04:48:39.171Z,10.34
2023-04-23T04:49:39.185Z,10.34
2023-04-23T04:50:39.153Z,10.36
2023-04-23T04:51:39.132Z,10.41
2023-04-23T04:52:39.135Z,10.42
2023-04-23T04:53:39.158Z,10.42
2023-04-23T04:54:39.104Z,10.45
2023-04-23T04:55:39.137Z,10.45
2023-04-23T04:56:39.107Z,10.48
2023-04-23T04:57:39.066Z,10.52
2023-04-23T04:58:39.062Z,10.52
2023-04-23T04:59:39.228Z,10.52
2023-04-23T05:00:39.043Z,10.52
2023-04-23T05:01:39.033Z,10.53
2023-04-23T05:02:39.091Z,10.55
2023-04-23T05:03:39.122Z,10.55
2023-04-23T05:04:39.062Z,10.55
2023-04-23T05:05:38.985Z,10.56
2023-04-23T05:06:38.983Z,10.55
2023-04-23T05:07:38.969Z,10.56
2023-04-23T05:08:38.952Z,10.55
2023-04-23T05:09:38.936Z,10.59
2023-04-23T05:10:38.940Z,10.60
2023-04-23T05:11:38.931Z,10.56
2023-04-23T05:12:38.917Z,10.60
2023-04-23T05:13:38.921Z,10.59
2023-04-23T05:14:38.979Z,10.59
2023-04-23T05:15:38.876Z,10.60
2023-04-23T05:16:38.879Z,10.61
2023-04-23T05:17:38.874Z,10.63
2023-04-23T05:18:38.854Z,10.63
2023-04-23T05:19:38.881Z,10.63
2023-04-23T05:20:38.817Z,10.61
2023-04-23T05:21:38.844Z,10.63
2023-04-23T05:22:38.802Z,10.64
2023-04-23T05:23:38.818Z,10.63
2023-04-23T05:24:38.874Z,10.64
2023-04-23T05:25:38.772Z,10.63
2023-04-23T05:26:38.747Z,10.63
2023-04-23T05:27:38.854Z,10.59
2023-04-23T05:28:38.727Z,10.61
2023-04-23T05:29:38.729Z,10.61
2023-04-23T05:30:38.856Z,10.66
2023-04-23T05:31:38.736Z,10.66
2023-04-23T05:32:38.828Z,10.66
2023-04-23T05:33:49.240Z,10.66
2023-04-23T05:34:38.888Z,10.66
2023-04-23T05:35:38.692Z,10.64
2023-04-23T05:36:38.645Z,10.64
2023-04-23T05:37:38.643Z,10.66
2023-04-23T05:38:38.613Z,10.66
2023-04-23T05:39:38.614Z,10.66
2023-04-23T05:40:38.596Z,10.66
2023-04-23T05:41:38.612Z,10.64
2023-04-23T05:42:38.617Z,10.68
2023-04-23T05:43:38.582Z,10.67
2023-04-23T05:44:38.696Z,10.68
2023-04-23T05:45:38.549Z,10.68
2023-04-23T05:46:38.554Z,10.68
2023-04-23T05:47:38.597Z,10.67
2023-04-23T05:48:38.561Z,10.63
2023-04-23T05:49:38.506Z,10.63
2023-04-23T05:50:38.478Z,10.66
2023-04-23T05:51:38.470Z,10.67
2023-04-23T05:52:38.446Z,10.68
2023-04-23T05:53:38.634Z,10.70
2023-04-23T05:54:38.503Z,10.71
2023-04-23T05:55:38.445Z,10.74
2023-04-23T05:56:38.434Z,10.74
2023-04-23T05:57:38.491Z,10.76
2023-04-23T05:58:38.398Z,10.79
2023-04-23T05:59:38.383Z,10.84
2023-04-23T06:00:38.395Z,10.82
2023-04-23T06:01:38.365Z,10.84
2023-04-23T06:02:38.446Z,10.85
2023-04-23T06:03:38.579Z,10.85
2023-04-23T06:04:38.540Z,10.84
2023-04-23T06:05:38.403Z,10.85
2023-04-23T06:06:38.318Z,10.86
2023-04-23T06:07:38.348Z,10.88
2023-04-23T06:08:38.281Z,10.89
2023-04-23T06:09:38.269Z,10.91
2023-04-23T06:10:38.250Z,10.94
2023-04-23T06:11:38.268Z,10.96
2023-04-23T06:12:38.249Z,10.97
2023-04-23T06:13:38.251Z,11.00
2023-04-23T06:14:38.211Z,11.00
2023-04-23T06:15:38.218Z,11.02
2023-04-23T06:16:38.194Z,11.04
2023-04-23T06:17:38.329Z,11.06
2023-04-23T06:18:38.185Z,11.07
2023-04-23T06:19:38.163Z,11.06
2023-04-23T06:20:38.170Z,11.06
2023-04-23T06:21:38.185Z,11.06
2023-04-23T06:22:38.133Z,11.06
2023-04-23T06:23:38.121Z,11.04
2023-04-23T06:24:38.120Z,11.03
2023-04-23T06:25:38.124Z,11.03
2023-04-23T06:26:38.128Z,11.04
2023-04-23T06:27:38.070Z,11.07
2023-04-23T06:28:38.074Z,11.07
2023-04-23T06:29:38.062Z,11.09
2023-04-23T06:30:38.093Z,11.09
2023-04-23T06:31:38.091Z,11.10
2023-04-23T06:32:38.055Z,11.09
2023-04-23T06:33:38.020Z,11.10
2023-04-23T06:34:46.752Z,11.14
2023-04-23T06:35:38.138Z,11.11
2023-04-23T06:36:38.004Z,11.11
2023-04-23T06:37:37.971Z,11.14
2023-04-23T06:38:38.000Z,11.14
2023-04-23T06:39:37.995Z,11.10
2023-04-23T06:40:37.944Z,11.10
2023-04-23T06:41:37.914Z,11.09
2023-04-23T06:42:37.924Z,11.09
2023-04-23T06:43:37.916Z,11.11
2023-04-23T06:44:37.878Z,11.10
2023-04-23T06:45:38.771Z,11.11
2023-04-23T06:46:37.903Z,11.10
2023-04-23T06:47:37.943Z,11.14
2023-04-23T06:48:37.874Z,11.11
2023-04-23T06:49:37.862Z,11.18
2023-04-23T06:50:37.815Z,11.21
2023-04-23T06:51:37.805Z,11.27
2023-04-23T06:52:37.809Z,11.28
2023-04-23T06:53:37.783Z,11.33
2023-04-23T06:54:37.785Z,11.33
2023-04-23T06:55:37.775Z,11.40
2023-04-23T06:56:37.772Z,11.44
2023-04-23T06:57:37.750Z,11.49
2023-04-23T06:58:37.725Z,11.52
2023-04-23T06:59:37.716Z,11.54
2023-04-23T07:00:37.960Z,11.61
2023-04-23T07:01:37.717Z,11.70
2023-04-23T07:02:37.842Z,11.76
2023-04-23T07:03:37.818Z,11.85
2023-04-23T07:04:37.797Z,11.90
2023-04-23T07:05:37.776Z,11.99
2023-04-23T07:06:37.666Z,12.04
2023-04-23T07:07:37.666Z,12.07
2023-04-23T07:08:37.648Z,12.10
2023-04-23T07:09:37.639Z,12.12
2023-04-23T07:10:37.630Z,12.14
2023-04-23T07:11:37.632Z,12.17
2023-04-23T07:12:37.615Z,12.17
2023-04-23T07:13:37.780Z,12.23
2023-04-23T07:14:37.624Z,12.28
2023-04-23T07:15:37.667Z,12.35
2023-04-23T07:16:37.667Z,12.37
2023-04-23T07:17:37.700Z,12.41
2023-04-23T07:18:37.541Z,12.46
2023-04-23T07:19:37.533Z,12.53
2023-04-23T07:20:37.515Z,12.56
2023-04-23T07:21:37.520Z,12.57
2023-04-23T07:22:37.496Z,12.59
2023-04-23T07:23:37.490Z,12.64
2023-04-23T07:24:37.477Z,12.62
2023-04-23T07:25:37.474Z,12.64
2023-04-23T07:26:37.444Z,12.64
2023-04-23T07:27:37.445Z,12.67
2023-04-23T07:28:37.434Z,12.64
2023-04-23T07:29:37.423Z,12.67
2023-04-23T07:30:37.413Z,12.67
2023-04-23T07:31:37.459Z,12.68
2023-04-23T07:32:37.446Z,12.71
2023-04-23T07:33:37.384Z,12.68
2023-04-23T07:34:38.057Z,12.68
2023-04-23T07:35:37.361Z,12.72
2023-04-23T07:36:37.358Z,12.71
2023-04-23T07:37:37.337Z,12.72
2023-04-23T07:38:37.325Z,12.83
2023-04-23T07:39:37.309Z,12.93
2023-04-23T07:40:37.315Z,13.01
2023-04-23T07:41:37.302Z,13.10
2023-04-23T07:42:37.499Z,13.12
2023-04-23T07:43:37.281Z,13.12
2023-04-23T07:44:37.247Z,13.19
2023-04-23T07:45:37.329Z,13.19
2023-04-23T07:46:37.324Z,13.23
2023-04-23T07:47:37.285Z,13.25
2023-04-23T07:48:37.223Z,13.33
2023-04-23T07:49:37.226Z,13.52
2023-04-23T07:50:37.200Z,13.64
2023-04-23T07:51:37.205Z,13.69
2023-04-23T07:52:37.170Z,13.79
2023-04-23T07:53:37.162Z,13.79
2023-04-23T07:54:37.151Z,13.79
2023-04-23T07:55:37.158Z,13.91
2023-04-23T07:56:37.163Z,13.99
2023-04-23T07:57:37.166Z,14.02
2023-04-23T07:58:37.112Z,14.04
2023-04-23T07:59:37.100Z,14.07
2023-04-23T08:00:37.099Z,14.07
2023-04-23T08:01:37.083Z,14.04
2023-04-23T08:02:37.163Z,14.07
2023-04-23T08:03:37.253Z,14.02
2023-04-23T08:04:37.292Z,13.99
2023-04-23T08:05:37.192Z,13.99
2023-04-23T08:06:37.032Z,13.99
2023-04-23T08:07:37.035Z,14.00
2023-04-23T08:08:37.005Z,14.02
2023-04-23T08:09:37.009Z,14.02
2023-04-23T08:10:36.981Z,14.03
2023-04-23T08:11:37.050Z,14.03
2023-04-23T08:12:36.978Z,14.12
2023-04-23T08:13:36.954Z,14.21
2023-04-23T08:14:36.940Z,14.24
2023-04-23T08:15:36.974Z,14.25
2023-04-23T08:16:38.898Z,14.27
2023-04-23T08:17:36.933Z,14.33
2023-04-23T08:18:36.913Z,14.36
2023-04-23T08:19:36.894Z,14.35
2023-04-23T08:20:36.890Z,14.35
2023-04-23T08:21:36.870Z,14.35
2023-04-23T08:22:36.855Z,14.37
2023-04-23T08:23:36.842Z,14.33
2023-04-23T08:24:36.867Z,14.33
2023-04-23T08:25:36.817Z,14.35
2023-04-23T08:26:36.948Z,14.33
2023-04-23T08:27:36.793Z,14.35
2023-04-23T08:28:36.779Z,14.35
2023-04-23T08:29:36.789Z,14.25
2023-04-23T08:30:36.788Z,14.22
2023-04-23T08:31:36.790Z,14.24
2023-04-23T08:32:36.808Z,14.28
2023-04-23T08:33:36.755Z,14.28
2023-04-23T08:34:36.721Z,14.32
2023-04-23T08:35:36.707Z,14.40
2023-04-23T08:36:36.702Z,14.40
2023-04-23T08:37:36.751Z,14.42
2023-04-23T08:38:36.671Z,14.43
2023-04-23T08:39:38.327Z,14.51
2023-04-23T08:40:36.726Z,14.54
2023-04-23T08:41:36.645Z,14.55
2023-04-23T08:42:36.627Z,14.58
2023-04-23T08:43:36.620Z,14.61
2023-04-23T08:44:36.608Z,14.65
2023-04-23T08:45:37.724Z,14.69
2023-04-23T08:46:36.615Z,14.73
2023-04-23T08:47:36.699Z,14.78
2023-04-23T08:48:36.568Z,14.84
2023-04-23T08:49:36.602Z,14.91
2023-04-23T08:50:36.540Z,14.94
2023-04-23T08:51:36.533Z,14.99
2023-04-23T08:52:36.561Z,14.99
2023-04-23T08:53:37.507Z,15.01
2023-04-23T08:54:36.509Z,15.02
2023-04-23T08:55:36.506Z,15.02
2023-04-23T08:56:36.476Z,15.11
2023-04-23T08:57:36.468Z,15.16
2023-04-23T08:58:36.469Z,15.27
2023-04-23T08:59:36.468Z,15.36
2023-04-23T09:00:36.508Z,15.53
2023-04-23T09:01:36.436Z,15.65
2023-04-23T09:02:36.579Z,15.68
2023-04-23T09:03:36.464Z,15.76
2023-04-23T09:04:36.404Z,15.80
2023-04-23T09:05:36.381Z,15.80
2023-04-23T09:06:36.373Z,15.72
2023-04-23T09:07:36.370Z,15.67
2023-04-23T09:08:36.374Z,15.62
2023-04-23T09:09:36.337Z,15.64
2023-04-23T09:10:36.327Z,15.68
2023-04-23T09:11:36.341Z,15.71
2023-04-23T09:12:36.337Z,15.72
2023-04-23T09:13:36.418Z,15.75
2023-04-23T09:14:36.274Z,15.72
2023-04-23T09:15:36.295Z,15.76
2023-04-23T09:16:36.341Z,15.74
2023-04-23T09:17:37.356Z,15.72
2023-04-23T09:18:36.392Z,15.71
2023-04-23T09:19:36.231Z,15.75
2023-04-23T09:20:36.231Z,15.86
2023-04-23T09:21:36.227Z,15.90
2023-04-23T09:22:36.204Z,16.00
2023-04-23T09:23:36.249Z,16.01
2023-04-23T09:24:36.206Z,16.04
2023-04-23T09:25:36.359Z,16.01
2023-04-23T09:26:36.158Z,15.92
2023-04-23T09:27:36.202Z,15.93
2023-04-23T09:28:36.192Z,15.93
2023-04-23T09:29:36.136Z,15.92
2023-04-23T09:30:36.181Z,15.90
2023-04-23T09:31:36.183Z,15.84
2023-04-23T09:32:36.090Z,15.83
2023-04-23T09:33:36.090Z,15.78
2023-04-23T09:34:36.223Z,15.72
2023-04-23T09:35:36.058Z,15.69
2023-04-23T09:36:36.481Z,15.67
2023-04-23T09:37:36.040Z,15.67
2023-04-23T09:38:36.027Z,15.65
2023-04-23T09:39:36.058Z,15.64
2023-04-23T09:40:36.015Z,15.62
2023-04-23T09:41:36.079Z,15.67
2023-04-23T09:42:35.991Z,15.65
2023-04-23T09:43:35.973Z,15.69
2023-04-23T09:44:35.964Z,15.72
2023-04-23T09:45:35.937Z,15.75
2023-04-23T09:46:35.935Z,15.83
2023-04-23T09:47:36.008Z,15.89
2023-04-23T09:48:35.925Z,15.92
2023-04-23T09:49:35.900Z,15.96
2023-04-23T09:50:35.950Z,15.94
2023-04-23T09:51:35.870Z,15.96
2023-04-23T09:52:35.867Z,15.96
2023-04-23T09:53:35.863Z,15.94
2023-04-23T09:54:35.863Z,16.08
2023-04-23T09:55:36.057Z,16.20
2023-04-23T09:56:35.847Z,16.30
2023-04-23T09:57:35.804Z,16.43
2023-04-23T09:58:35.821Z,16.61
2023-04-23T09:59:46.855Z,16.71
2023-04-23T10:00:35.783Z,16.79
2023-04-23T10:01:35.796Z,16.73
2023-04-23T10:02:35.808Z,16.75
2023-04-23T10:03:35.836Z,16.78
2023-04-23T10:04:35.924Z,16.83
2023-04-23T10:05:49.770Z,16.82
2023-04-23T10:06:42.303Z,16.83
2023-04-23T10:07:35.697Z,16.93
2023-04-23T10:08:35.709Z,16.94
2023-04-23T10:09:35.695Z,17.03
2023-04-23T10:10:43.092Z,17.07
2023-04-23T10:11:35.675Z,17.08
2023-04-23T10:12:46.624Z,17.06
2023-04-23T10:13:35.677Z,17.00
2023-04-23T10:14:35.627Z,16.91
2023-04-23T10:15:35.697Z,16.88
2023-04-23T10:16:46.003Z,16.83
2023-04-23T10:17:35.616Z,16.81
2023-04-23T10:18:35.585Z,16.81
2023-04-23T10:19:35.571Z,16.81
2023-04-23T10:20:35.569Z,16.81
2023-04-23T10:21:46.695Z,16.78
2023-04-23T10:22:35.534Z,16.73
2023-04-23T10:23:35.522Z,16.68
2023-04-23T10:24:35.522Z,16.61
2023-04-23T10:25:35.503Z,16.64
2023-04-23T10:26:35.496Z,16.66
2023-04-23T10:27:51.323Z,16.66
2023-04-23T10:28:35.481Z,16.60
2023-04-23T10:29:35.464Z,16.60
2023-04-23T10:30:35.450Z,16.58
2023-04-23T10:31:35.478Z,16.57
2023-04-23T10:32:35.468Z,16.56
2023-04-23T10:33:42.694Z,16.56
2023-04-23T10:34:35.434Z,16.56
2023-04-23T10:35:35.396Z,16.56
2023-04-23T10:36:35.390Z,16.58
2023-04-23T10:37:35.380Z,16.61
2023-04-23T10:38:36.674Z,16.57
2023-04-23T10:39:35.356Z,16.58
2023-04-23T10:40:35.342Z,16.57
2023-04-23T10:41:35.333Z,16.56
2023-04-23T10:42:35.321Z,16.57
2023-04-23T10:43:35.299Z,16.57
2023-04-23T10:44:56.534Z,16.60
2023-04-23T10:45:35.276Z,16.60
2023-04-23T10:46:37.918Z,16.63
2023-04-23T10:47:35.269Z,16.67
2023-04-23T10:48:35.254Z,16.82
2023-04-23T10:49:35.255Z,17.12
2023-04-23T10:50:35.235Z,17.22
2023-04-23T10:52:14.850Z,17.31
2023-04-23T10:52:35.226Z,17.37
2023-04-23T10:53:35.243Z,17.38
2023-04-23T10:54:35.195Z,17.43
2023-04-23T10:55:35.180Z,17.54
2023-04-23T10:56:35.180Z,17.63
2023-04-23T10:57:35.169Z,17.78
2023-04-23T10:58:35.135Z,17.90
2023-04-23T10:59:35.141Z,18.03
2023-04-23T11:00:35.137Z,18.03
2023-04-23T11:01:35.114Z,17.96
2023-04-23T11:02:35.184Z,17.90
2023-04-23T11:03:35.251Z,17.90
2023-04-23T11:04:35.329Z,17.86
2023-04-23T11:05:35.079Z,17.81
2023-04-23T11:06:35.054Z,17.74
2023-04-23T11:07:35.310Z,17.70
2023-04-23T11:08:35.085Z,17.70
2023-04-23T11:09:35.013Z,17.72
2023-04-23T11:10:35.151Z,17.78
2023-04-23T11:11:35.069Z,17.75
2023-04-23T11:12:35.042Z,17.70
2023-04-23T11:13:35.038Z,17.59
2023-04-23T11:14:34.957Z,17.54
2023-04-23T11:15:34.951Z,17.51
2023-04-23T11:16:34.985Z,17.48
2023-04-23T11:17:34.989Z,17.48
2023-04-23T11:18:34.941Z,17.46
2023-04-23T11:19:34.924Z,17.40
2023-04-23T11:20:34.906Z,17.38
2023-04-23T11:21:34.896Z,17.33
2023-04-23T11:22:34.908Z,17.25
2023-04-23T11:23:34.869Z,17.18
2023-04-23T11:24:34.897Z,17.11
2023-04-23T11:25:34.859Z,17.01
2023-04-23T11:26:34.843Z,16.93
2023-04-23T11:27:34.820Z,16.85
2023-04-23T11:28:34.810Z,16.83
2023-04-23T11:29:34.809Z,16.81
2023-04-23T11:30:34.800Z,16.81
2023-04-23T11:31:34.815Z,16.79
2023-04-23T11:32:34.870Z,16.64
2023-04-23T11:33:34.763Z,16.12
2023-04-23T11:34:34.754Z,15.86
2023-04-23T11:35:34.723Z,15.83
2023-04-23T11:36:34.743Z,15.83
2023-04-23T11:37:34.717Z,15.69
2023-04-23T11:38:34.712Z,15.56
2023-04-23T11:39:34.697Z,15.57
2023-04-23T11:40:34.683Z,15.60
2023-04-23T11:41:34.685Z,15.69
2023-04-23T11:42:34.661Z,15.75
2023-04-23T11:43:34.657Z,15.84
2023-04-23T11:44:34.649Z,15.96
2023-04-23T11:45:34.619Z,16.04
2023-04-23T11:46:34.644Z,16.09
2023-04-23T11:47:34.617Z,16.15
2023-04-23T11:48:34.606Z,16.20
2023-04-23T11:49:34.578Z,16.11
2023-04-23T11:50:34.566Z,16.12
2023-04-23T11:51:34.582Z,16.14
2023-04-23T11:52:34.540Z,16.14
2023-04-23T11:53:34.536Z,16.14
2023-04-23T11:54:34.555Z,16.15
2023-04-23T11:55:34.513Z,16.17
2023-04-23T11:56:34.499Z,16.24
2023-04-23T11:57:34.494Z,16.27
2023-04-23T11:58:34.495Z,16.28
2023-04-23T11:59:34.479Z,16.35
2023-04-23T12:00:34.515Z,16.38
2023-04-23T12:01:34.445Z,16.39
2023-04-23T12:02:34.531Z,16.39
2023-04-23T12:03:34.504Z,16.42
2023-04-23T12:04:34.454Z,16.39
2023-04-23T12:05:34.443Z,16.35
2023-04-23T12:06:34.424Z,16.34
2023-04-23T12:07:34.384Z,16.33
2023-04-23T12:08:34.382Z,16.30
2023-04-23T12:09:34.360Z,16.28
2023-04-23T12:10:34.348Z,16.31
2023-04-23T12:11:34.328Z,16.33
2023-04-23T12:12:34.332Z,16.33
2023-04-23T12:13:34.326Z,16.33
2023-04-23T12:14:34.326Z,16.35
2023-04-23T12:15:34.300Z,16.38
2023-04-23T12:16:34.305Z,16.38
2023-04-23T12:17:34.301Z,16.35
2023-04-23T12:18:34.316Z,16.33
2023-04-23T12:19:34.249Z,16.28
2023-04-23T12:20:34.237Z,16.15
2023-04-23T12:21:34.230Z,16.04
2023-04-23T12:22:34.235Z,15.96
2023-04-23T12:23:34.200Z,15.86
2023-04-23T12:24:34.205Z,15.74
2023-04-23T12:25:34.183Z,15.67
2023-04-23T12:26:34.200Z,15.64
2023-04-23T12:27:34.168Z,15.54
2023-04-23T12:28:34.160Z,15.47
2023-04-23T12:29:34.136Z,15.41
2023-04-23T12:30:34.143Z,15.39
2023-04-23T12:31:34.161Z,15.39
2023-04-23T12:32:34.164Z,15.39
2023-04-23T12:33:34.101Z,15.39
2023-04-23T12:34:34.086Z,15.36
2023-04-23T12:35:34.116Z,15.38
2023-04-23T12:36:34.068Z,15.38
2023-04-23T12:37:34.055Z,15.38
2023-04-23T12:38:34.034Z,15.41
2023-04-23T12:39:34.092Z,15.43
2023-04-23T12:40:34.018Z,15.46
2023-04-23T12:41:34.011Z,15.51
2023-04-23T12:42:33.996Z,15.56
2023-04-23T12:43:33.985Z,15.57
2023-04-23T12:44:33.977Z,15.54
2023-04-23T12:45:33.967Z,15.51
2023-04-23T12:46:33.970Z,15.53
2023-04-23T12:47:34.008Z,15.57
2023-04-23T12:48:33.952Z,15.64
2023-04-23T12:49:33.926Z,15.67
2023-04-23T12:50:33.906Z,15.72
2023-04-23T12:51:33.898Z,15.80
2023-04-23T12:52:33.900Z,15.86